Time;durP1;ratioP1;P1;durP2;ratioP2;P2;SDS_P1;SDS_P2;PMS_P1;PMS_P2;Temp;Humidity;BMP_temperature;BMP_pressure;BME280_temperature;BME280_humidity;BME280_pressure;Samples;Min_cycle;Max_cycle;Signal;HPM_P1;HPM_P2
2022/01/29 00:00:45;;;;;;;21.17;13.73;;;;;;;;;;4940814;29;20178;-78
2022/01/29 00:03:13;;;;;;;23.43;14.13;;;;;;;;;;4957844;28;20201;-78
2022/01/29 00:05:41;;;;;;;27.00;15.07;;;;;;;;;;4959503;28;20284;-78
2022/01/29 00:08:08;;;;;;;23.53;14.10;;;;;;;;;;4949469;28;20197;-78
2022/01/29 00:10:34;;;;;;;22.67;14.00;;;;;;;;;;4943559;28;20189;-78
2022/01/29 00:13:01;;;;;;;25.13;14.23;;;;;;;;;;4920006;29;20242;-79
2022/01/29 00:15:27;;;;;;;24.30;13.67;;;;;;;;;;4954557;28;20197;-79
2022/01/29 00:17:53;;;;;;;23.30;12.97;;;;;;;;;;4941426;28;20655;-79
2022/01/29 00:20:21;;;;;;;24.53;14.53;;;;;;;;;;4965705;28;20185;-78
2022/01/29 00:22:48;;;;;;;24.60;14.00;;;;;;;;;;4938895;29;20571;-77
2022/01/29 00:25:15;;;;;;;24.37;14.27;;;;;;;;;;4966162;28;20213;-78
2022/01/29 00:27:42;;;;;;;23.30;14.03;;;;;;;;;;4963342;28;20193;-79
2022/01/29 00:30:16;;;;;;;25.43;14.33;;;;;;;;;;4943770;28;20181;-79
2022/01/29 00:32:43;;;;;;;24.37;13.90;;;;;;;;;;4968504;28;20293;-78
2022/01/29 00:35:11;;;;;;;24.37;13.40;;;;;;;;;;4961716;28;20239;-78
2022/01/29 00:37:39;;;;;;;21.67;14.00;;;;;;;;;;4940420;29;20219;-77
2022/01/29 00:40:08;;;;;;;25.57;14.53;;;;;;;;;;4940679;29;20241;-79
2022/01/29 00:42:35;;;;;;;20.97;12.93;;;;;;;;;;4948362;29;20193;-77
2022/01/29 00:45:03;;;;;;;20.90;12.87;;;;;;;;;;4962467;28;20209;-78
2022/01/29 00:47:29;;;;;;;23.47;14.13;;;;;;;;;;4963821;28;20192;-78
2022/01/29 00:49:56;;;;;;;21.97;13.50;;;;;;;;;;4965080;29;20197;-78
2022/01/29 00:52:26;;;;;;;23.13;13.73;;;;;;;;;;4963307;29;20197;-78
2022/01/29 00:54:52;;;;;;;26.00;14.70;;;;;;;;;;4965400;28;20221;-78
2022/01/29 00:57:19;;;;;;;21.77;13.23;;;;;;;;;;4944988;29;20270;-78
2022/01/29 00:59:47;;;;;;;26.70;13.50;;;;;;;;;;4965386;28;20184;-79
2022/01/29 01:02:15;;;;;;;25.53;14.27;;;;;;;;;;4951276;29;20192;-78
2022/01/29 01:04:42;;;;;;;25.57;13.83;;;;;;;;;;4962570;28;20291;-77
2022/01/29 01:07:09;;;;;;;22.07;13.90;;;;;;;;;;4950755;29;20576;-78
2022/01/29 01:09:35;;;;;;;21.93;13.97;;;;;;;;;;4956847;28;20196;-76
2022/01/29 01:12:02;;;;;;;24.37;13.00;;;;;;;;;;4960905;28;20213;-77
2022/01/29 01:14:30;;;;;;;21.23;13.10;;;;;;;;;;4963300;28;20201;-77
2022/01/29 01:16:57;;;;;;;22.23;13.27;;;;;;;;;;4940684;28;20193;-78
2022/01/29 01:19:26;;;;;;;19.60;12.57;;;;;;;;;;4964086;28;20173;-77
2022/01/29 01:21:54;;;;;;;21.47;12.07;;;;;;;;;;4955434;29;20638;-78
2022/01/29 01:24:24;;;;;;;21.50;13.20;;;;;;;;;;4969357;28;20260;-79
2022/01/29 01:26:56;;;;;;;24.87;12.90;;;;;;;;;;4979211;28;20196;-77
2022/01/29 01:29:25;;;;;;;25.13;13.50;;;;;;;;;;4952343;28;20181;-78
2022/01/29 01:31:51;;;;;;;21.47;12.20;;;;;;;;;;4960411;28;20201;-78
2022/01/29 01:34:23;;;;;;;22.90;13.20;;;;;;;;;;4958466;28;20206;-78
2022/01/29 01:36:57;;;;;;;23.90;12.63;;;;;;;;;;4954226;28;20209;-78
2022/01/29 01:39:29;;;;;;;21.70;12.83;;;;;;;;;;4968253;29;20261;-78
2022/01/29 01:42:05;;;;;;;20.23;12.07;;;;;;;;;;4971990;29;20202;-78
2022/01/29 01:44:43;;;;;;;21.77;12.33;;;;;;;;;;4962650;29;20227;-80
2022/01/29 01:47:11;;;;;;;22.60;12.90;;;;;;;;;;4956636;28;20215;-79
2022/01/29 01:49:49;;;;;;;20.97;12.37;;;;;;;;;;4959568;28;20189;-78
2022/01/29 01:52:16;;;;;;;23.70;13.20;;;;;;;;;;4970698;28;20212;-78
2022/01/29 01:54:45;;;;;;;19.70;12.23;;;;;;;;;;4950932;29;20273;-78
2022/01/29 01:57:12;;;;;;;21.10;12.53;;;;;;;;;;4974037;28;20188;-78
2022/01/29 01:59:42;;;;;;;20.97;12.10;;;;;;;;;;4966805;28;20252;-77
2022/01/29 02:02:08;;;;;;;26.63;12.73;;;;;;;;;;4943502;29;20292;-78
2022/01/29 02:04:34;;;;;;;22.13;12.03;;;;;;;;;;4948843;29;20268;-79
2022/01/29 02:07:02;;;;;;;18.97;11.63;;;;;;;;;;4937353;29;20668;-78
2022/01/29 02:09:32;;;;;;;20.80;12.17;;;;;;;;;;4971400;28;20181;-77
2022/01/29 02:12:01;;;;;;;20.90;12.40;;;;;;;;;;4951371;28;20285;-78
2022/01/29 02:14:34;;;;;;;20.53;12.70;;;;;;;;;;4951467;29;20201;-78
2022/01/29 02:17:01;;;;;;;20.67;12.13;;;;;;;;;;4955326;29;20178;-77
2022/01/29 02:19:27;;;;;;;23.20;13.50;;;;;;;;;;4954198;28;20189;-77
2022/01/29 02:21:54;;;;;;;22.47;12.47;;;;;;;;;;4932541;29;20178;-77
2022/01/29 02:24:21;;;;;;;21.33;12.37;;;;;;;;;;4935317;28;20197;-77
2022/01/29 02:26:47;;;;;;;20.30;12.47;;;;;;;;;;4959704;28;20191;-78
2022/01/29 02:29:14;;;;;;;19.63;11.80;;;;;;;;;;4947529;28;20642;-79
2022/01/29 02:31:48;;;;;;;18.50;11.37;;;;;;;;;;4945590;28;20214;-77
2022/01/29 02:34:15;;;;;;;21.53;11.77;;;;;;;;;;4945389;29;20627;-78
2022/01/29 02:36:43;;;;;;;21.87;12.77;;;;;;;;;;4949345;28;20189;-77
2022/01/29 02:39:13;;;;;;;18.83;11.30;;;;;;;;;;4956672;28;20208;-79
2022/01/29 02:41:43;;;;;;;20.00;12.33;;;;;;;;;;4949190;28;20189;-77
2022/01/29 02:44:10;;;;;;;21.53;12.23;;;;;;;;;;4940303;29;20259;-78
2022/01/29 02:46:49;;;;;;;23.00;12.33;;;;;;;;;;4956860;28;20725;-78
2022/01/29 02:49:17;;;;;;;20.43;12.43;;;;;;;;;;4955896;28;20646;-78
2022/01/29 02:51:44;;;;;;;23.63;12.63;;;;;;;;;;4957926;28;20213;-78
2022/01/29 02:54:10;;;;;;;21.53;13.10;;;;;;;;;;4958425;28;20228;-79
2022/01/29 02:56:36;;;;;;;19.20;11.63;;;;;;;;;;4954159;28;20178;-77
2022/01/29 02:59:02;;;;;;;19.17;12.23;;;;;;;;;;4955660;28;20623;-76
2022/01/29 03:01:28;;;;;;;24.07;13.70;;;;;;;;;;4956553;28;20189;-78
2022/01/29 03:03:55;;;;;;;22.67;13.63;;;;;;;;;;4945277;29;20217;-79
2022/01/29 03:06:22;;;;;;;20.33;11.50;;;;;;;;;;4949466;28;20220;-78
2022/01/29 03:08:48;;;;;;;21.73;12.70;;;;;;;;;;4938310;28;20289;-78
2022/01/29 03:11:19;;;;;;;22.70;12.47;;;;;;;;;;4938230;29;20209;-79
2022/01/29 03:13:46;;;;;;;22.77;13.67;;;;;;;;;;4953533;29;20673;-79
2022/01/29 03:16:12;;;;;;;20.17;12.03;;;;;;;;;;4950332;28;20274;-78
2022/01/29 03:18:38;;;;;;;22.33;11.90;;;;;;;;;;4953112;28;20553;-74
2022/01/29 03:21:04;;;;;;;21.47;12.30;;;;;;;;;;4948916;28;20229;-77
2022/01/29 03:23:30;;;;;;;20.83;12.23;;;;;;;;;;4952877;28;20197;-78
2022/01/29 03:25:56;;;;;;;19.73;12.10;;;;;;;;;;4952492;29;20209;-77
2022/01/29 03:28:24;;;;;;;20.80;12.80;;;;;;;;;;4947219;29;20205;-78
2022/01/29 03:30:50;;;;;;;21.47;12.53;;;;;;;;;;4947456;28;20189;-77
2022/01/29 03:33:16;;;;;;;20.80;12.70;;;;;;;;;;4952427;28;20243;-79
2022/01/29 03:35:42;;;;;;;17.70;11.73;;;;;;;;;;4953679;28;20652;-78
2022/01/29 03:38:09;;;;;;;20.60;12.20;;;;;;;;;;4954677;28;20192;-78
2022/01/29 03:40:35;;;;;;;19.83;12.17;;;;;;;;;;4955216;28;20181;-78
2022/01/29 03:43:06;;;;;;;20.97;12.10;;;;;;;;;;4952970;28;20645;-77
2022/01/29 03:45:33;;;;;;;18.43;11.57;;;;;;;;;;4945221;29;20193;-77
2022/01/29 03:47:59;;;;;;;20.17;12.43;;;;;;;;;;4954627;29;20196;-78
2022/01/29 03:50:25;;;;;;;21.47;12.03;;;;;;;;;;4955254;28;20740;-78
2022/01/29 03:52:51;;;;;;;19.70;11.50;;;;;;;;;;4943550;29;20214;-78
2022/01/29 03:55:18;;;;;;;21.20;12.57;;;;;;;;;;4951832;28;20688;-80
2022/01/29 03:57:44;;;;;;;20.40;11.80;;;;;;;;;;4954269;28;20176;-77
2022/01/29 04:00:11;;;;;;;20.20;12.43;;;;;;;;;;4952765;28;20232;-78
2022/01/29 04:02:37;;;;;;;20.50;12.00;;;;;;;;;;4954181;28;20617;-77
2022/01/29 04:05:04;;;;;;;20.13;12.10;;;;;;;;;;4954608;28;20579;-77
2022/01/29 04:07:30;;;;;;;19.40;11.50;;;;;;;;;;4958343;28;20266;-78
2022/01/29 04:09:56;;;;;;;18.70;11.03;;;;;;;;;;4953802;28;20185;-77
2022/01/29 04:12:25;;;;;;;21.60;11.30;;;;;;;;;;4960291;28;20246;-77
2022/01/29 04:14:53;;;;;;;16.43;10.50;;;;;;;;;;4958256;28;20291;-78
2022/01/29 04:17:20;;;;;;;18.17;10.77;;;;;;;;;;4952947;28;20181;-77
2022/01/29 04:19:46;;;;;;;19.47;11.30;;;;;;;;;;4955920;28;20236;-78
2022/01/29 04:22:12;;;;;;;18.80;11.63;;;;;;;;;;4957682;28;20203;-78
2022/01/29 04:24:38;;;;;;;21.67;10.83;;;;;;;;;;4954084;28;20817;-79
2022/01/29 04:27:14;;;;;;;18.90;11.50;;;;;;;;;;4953879;29;20704;-77
2022/01/29 04:29:53;;;;;;;18.70;10.67;;;;;;;;;;4956260;29;20184;-77
2022/01/29 04:32:26;;;;;;;18.30;10.50;;;;;;;;;;4956126;28;20228;-78
2022/01/29 04:34:52;;;;;;;19.17;10.80;;;;;;;;;;4955458;29;20212;-77
2022/01/29 04:37:18;;;;;;;17.87;11.30;;;;;;;;;;4956951;28;20688;-77
2022/01/29 04:39:45;;;;;;;19.13;11.13;;;;;;;;;;4954550;29;20181;-78
2022/01/29 04:42:11;;;;;;;16.87;11.27;;;;;;;;;;4956626;28;20186;-80
2022/01/29 04:44:37;;;;;;;17.67;11.10;;;;;;;;;;4951058;28;20212;-79
2022/01/29 04:47:03;;;;;;;19.83;11.13;;;;;;;;;;4952775;28;20279;-77
2022/01/29 04:49:29;;;;;;;20.63;10.97;;;;;;;;;;4956174;28;20268;-78
2022/01/29 04:51:56;;;;;;;18.87;11.30;;;;;;;;;;4950581;28;20693;-78
2022/01/29 04:54:22;;;;;;;21.03;12.97;;;;;;;;;;4955547;28;20223;-78
2022/01/29 04:56:48;;;;;;;22.47;12.27;;;;;;;;;;4956213;28;20188;-78
2022/01/29 04:59:15;;;;;;;19.63;11.43;;;;;;;;;;4937108;28;20180;-79
2022/01/29 05:01:42;;;;;;;18.33;11.80;;;;;;;;;;4955994;28;20196;-78
2022/01/29 05:04:08;;;;;;;23.47;13.30;;;;;;;;;;4948807;28;20260;-78
2022/01/29 05:06:34;;;;;;;18.67;11.67;;;;;;;;;;4952846;28;20181;-79
2022/01/29 05:09:00;;;;;;;20.67;11.93;;;;;;;;;;4954165;28;20221;-81
2022/01/29 05:11:28;;;;;;;18.37;11.83;;;;;;;;;;4952228;28;20256;-78
2022/01/29 05:13:55;;;;;;;20.50;11.93;;;;;;;;;;4955041;28;20231;-78
2022/01/29 05:27:04;;;;;;;21.57;12.40;;;;;;;;;;4951155;28;20206;-78
2022/01/29 05:29:32;;;;;;;20.20;13.03;;;;;;;;;;4957499;28;20189;-78
2022/01/29 05:32:02;;;;;;;21.50;12.53;;;;;;;;;;4957296;28;20209;-78
2022/01/29 05:34:28;;;;;;;22.30;13.63;;;;;;;;;;4954623;28;20283;-78
2022/01/29 05:36:55;;;;;;;23.00;13.10;;;;;;;;;;4957970;28;20185;-76
2022/01/29 05:39:21;;;;;;;23.77;13.37;;;;;;;;;;4968258;28;20590;-78
2022/01/29 05:41:48;;;;;;;23.20;13.80;;;;;;;;;;4954831;29;20189;-79
2022/01/29 05:44:14;;;;;;;23.73;13.67;;;;;;;;;;4951071;28;20204;-77
2022/01/29 05:46:40;;;;;;;24.37;14.27;;;;;;;;;;4951644;29;20268;-79
2022/01/29 05:49:06;;;;;;;24.83;13.33;;;;;;;;;;4955100;28;20181;-78
2022/01/29 05:51:33;;;;;;;23.33;14.20;;;;;;;;;;4953978;29;20204;-79
2022/01/29 05:54:02;;;;;;;27.03;15.60;;;;;;;;;;4954744;28;20202;-77
2022/01/29 05:56:28;;;;;;;26.43;14.30;;;;;;;;;;4944203;28;20724;-77
2022/01/29 05:58:56;;;;;;;22.33;13.50;;;;;;;;;;4915577;29;20280;-78
2022/01/29 06:01:22;;;;;;;24.00;14.47;;;;;;;;;;4955519;28;20197;-78
2022/01/29 06:03:48;;;;;;;23.13;13.97;;;;;;;;;;4953670;28;20256;-79
2022/01/29 06:06:15;;;;;;;27.00;14.10;;;;;;;;;;4953068;28;20184;-78
2022/01/29 06:08:41;;;;;;;24.27;14.03;;;;;;;;;;4955699;28;20197;-77
2022/01/29 06:11:07;;;;;;;24.43;14.07;;;;;;;;;;4951999;28;20235;-79
2022/01/29 06:13:33;;;;;;;25.10;14.37;;;;;;;;;;4958656;28;20671;-78
2022/01/29 06:16:01;;;;;;;23.57;13.60;;;;;;;;;;4955108;28;20181;-78
2022/01/29 06:18:28;;;;;;;23.53;13.13;;;;;;;;;;4956994;28;20236;-77
2022/01/29 06:20:56;;;;;;;24.37;13.40;;;;;;;;;;4955390;28;20665;-78
2022/01/29 06:23:33;;;;;;;22.27;13.67;;;;;;;;;;4939026;29;20209;-79
2022/01/29 06:26:01;;;;;;;21.50;12.13;;;;;;;;;;4956687;28;20189;-78
2022/01/29 06:28:27;;;;;;;20.17;12.07;;;;;;;;;;4948137;28;20650;-77
2022/01/29 06:30:53;;;;;;;21.77;12.27;;;;;;;;;;4960567;28;20187;-79
2022/01/29 06:33:19;;;;;;;20.27;11.83;;;;;;;;;;4956958;28;20280;-77
2022/01/29 06:35:46;;;;;;;24.83;12.90;;;;;;;;;;4955807;28;20225;-77
2022/01/29 06:38:13;;;;;;;22.67;11.83;;;;;;;;;;4941379;29;20177;-78
2022/01/29 06:40:40;;;;;;;21.03;11.80;;;;;;;;;;4958534;28;21220;-78
2022/01/29 06:43:07;;;;;;;20.93;12.20;;;;;;;;;;4953368;28;20216;-78
2022/01/29 06:45:35;;;;;;;20.87;11.70;;;;;;;;;;4942984;29;20293;-79
2022/01/29 06:48:01;;;;;;;20.97;11.33;;;;;;;;;;4959040;28;20209;-78
2022/01/29 06:50:28;;;;;;;20.50;11.23;;;;;;;;;;4956661;28;20197;-79
2022/01/29 06:52:55;;;;;;;19.03;10.73;;;;;;;;;;4957447;28;20233;-78
2022/01/29 06:55:21;;;;;;;19.17;10.60;;;;;;;;;;4958725;28;20174;-78
2022/01/29 06:57:48;;;;;;;18.73;10.47;;;;;;;;;;4957450;29;20185;-77
2022/01/29 07:00:14;;;;;;;19.97;10.00;;;;;;;;;;4957470;29;20189;-79
2022/01/29 07:02:41;;;;;;;21.20;10.13;;;;;;;;;;4952765;28;20193;-79
2022/01/29 07:05:08;;;;;;;17.13;9.90;;;;;;;;;;4953482;28;20205;-79
2022/01/29 07:07:34;;;;;;;17.97;10.03;;;;;;;;;;4955422;28;20197;-78
2022/01/29 07:10:01;;;;;;;16.70;9.80;;;;;;;;;;4954812;28;20189;-79
2022/01/29 07:12:28;;;;;;;17.87;10.00;;;;;;;;;;4946961;29;20224;-79
2022/01/29 07:14:54;;;;;;;17.50;9.07;;;;;;;;;;4955199;28;20209;-79
2022/01/29 07:17:22;;;;;;;16.17;9.00;;;;;;;;;;4954823;28;20267;-79
2022/01/29 07:19:52;;;;;;;17.07;8.70;;;;;;;;;;4955004;28;20316;-79
2022/01/29 07:22:19;;;;;;;16.77;9.43;;;;;;;;;;4963668;28;20272;-79
2022/01/29 07:24:46;;;;;;;17.03;9.23;;;;;;;;;;4971232;28;20295;-79
2022/01/29 07:27:13;;;;;;;16.10;9.23;;;;;;;;;;4958985;28;20196;-79
2022/01/29 07:29:39;;;;;;;15.37;8.87;;;;;;;;;;4953637;28;20196;-79
2022/01/29 07:32:05;;;;;;;16.27;8.97;;;;;;;;;;4958881;28;20216;-79
2022/01/29 07:34:31;;;;;;;12.77;8.07;;;;;;;;;;4958170;28;20201;-79
2022/01/29 07:36:58;;;;;;;16.97;8.80;;;;;;;;;;4955169;28;20185;-79
2022/01/29 07:39:25;;;;;;;16.20;9.20;;;;;;;;;;4954965;28;20185;-79
2022/01/29 07:41:52;;;;;;;18.07;9.00;;;;;;;;;;4954371;28;20208;-79
2022/01/29 07:44:18;;;;;;;14.10;8.60;;;;;;;;;;4954577;28;20425;-79
2022/01/29 07:46:44;;;;;;;15.67;8.10;;;;;;;;;;4954771;28;20189;-79
2022/01/29 07:49:10;;;;;;;15.50;8.93;;;;;;;;;;4955247;28;20216;-79
2022/01/29 07:51:37;;;;;;;14.13;8.63;;;;;;;;;;4953029;29;20300;-78
2022/01/29 07:54:04;;;;;;;16.27;9.53;;;;;;;;;;4954167;28;20685;-79
2022/01/29 07:56:30;;;;;;;13.93;7.93;;;;;;;;;;4954401;28;20235;-79
2022/01/29 07:58:56;;;;;;;14.80;8.23;;;;;;;;;;4954125;28;20541;-78
2022/01/29 08:01:22;;;;;;;15.13;8.70;;;;;;;;;;4954697;28;20260;-78
2022/01/29 08:03:50;;;;;;;14.17;8.40;;;;;;;;;;4954470;28;20292;-78
2022/01/29 08:06:18;;;;;;;17.00;9.00;;;;;;;;;;4954200;29;20181;-79
2022/01/29 08:08:44;;;;;;;17.97;9.30;;;;;;;;;;4953746;28;20236;-76
2022/01/29 08:11:11;;;;;;;18.50;9.80;;;;;;;;;;4953411;29;20188;-77
2022/01/29 08:13:37;;;;;;;17.40;10.27;;;;;;;;;;4953259;28;20287;-77
2022/01/29 08:16:04;;;;;;;17.57;10.30;;;;;;;;;;4953190;28;20188;-77
2022/01/29 08:18:30;;;;;;;20.33;10.33;;;;;;;;;;4953654;28;20272;-76
2022/01/29 08:20:57;;;;;;;19.33;11.37;;;;;;;;;;4944503;28;20271;-76
2022/01/29 08:23:23;;;;;;;19.73;10.90;;;;;;;;;;4952645;28;20641;-76
2022/01/29 08:25:49;;;;;;;19.77;10.60;;;;;;;;;;4953035;28;20197;-79
2022/01/29 08:28:16;;;;;;;20.63;10.90;;;;;;;;;;4953519;28;20649;-78
2022/01/29 08:30:43;;;;;;;21.63;12.03;;;;;;;;;;4952285;28;20194;-78
2022/01/29 08:33:11;;;;;;;22.10;12.37;;;;;;;;;;4950482;28;20805;-77
2022/01/29 08:35:37;;;;;;;23.57;11.60;;;;;;;;;;4950107;28;20217;-77
2022/01/29 08:38:03;;;;;;;21.77;12.00;;;;;;;;;;4951161;28;20634;-76
2022/01/29 08:40:30;;;;;;;21.00;12.23;;;;;;;;;;4942317;28;20186;-76
2022/01/29 08:42:56;;;;;;;21.67;12.53;;;;;;;;;;4940026;28;20708;-75
2022/01/29 08:45:22;;;;;;;20.57;11.37;;;;;;;;;;4950255;28;20304;-73
2022/01/29 08:47:48;;;;;;;18.53;11.63;;;;;;;;;;4953163;28;20208;-73
2022/01/29 08:50:15;;;;;;;19.93;11.40;;;;;;;;;;4953023;29;20260;-74
2022/01/29 08:52:41;;;;;;;23.47;12.27;;;;;;;;;;4951744;28;20283;-74
2022/01/29 08:55:08;;;;;;;21.07;11.57;;;;;;;;;;4952979;28;20213;-74
2022/01/29 08:57:34;;;;;;;18.40;11.23;;;;;;;;;;4954202;28;20200;-77
2022/01/29 09:00:01;;;;;;;18.93;10.83;;;;;;;;;;4952896;29;20188;-77
2022/01/29 09:02:27;;;;;;;20.83;11.47;;;;;;;;;;4951063;29;20280;-77
2022/01/29 09:04:57;;;;;;;20.10;11.73;;;;;;;;;;4951646;28;20213;-77
2022/01/29 09:07:24;;;;;;;19.67;11.50;;;;;;;;;;4948032;28;20692;-77
2022/01/29 09:09:51;;;;;;;19.70;11.57;;;;;;;;;;4952676;28;20268;-77
2022/01/29 09:12:17;;;;;;;19.20;11.03;;;;;;;;;;4951208;28;20213;-77
2022/01/29 09:14:43;;;;;;;18.07;10.07;;;;;;;;;;4951062;28;20197;-77
2022/01/29 09:17:10;;;;;;;18.67;10.93;;;;;;;;;;4951662;29;20181;-77
2022/01/29 09:19:36;;;;;;;19.70;10.93;;;;;;;;;;4954202;29;20188;-77
2022/01/29 09:22:02;;;;;;;18.00;11.10;;;;;;;;;;4951464;28;20189;-76
2022/01/29 09:24:29;;;;;;;17.90;10.83;;;;;;;;;;4946295;28;20741;-75
2022/01/29 09:26:55;;;;;;;16.67;10.13;;;;;;;;;;4953698;28;20209;-77
2022/01/29 09:29:21;;;;;;;21.07;11.20;;;;;;;;;;4951445;29;20189;-77
2022/01/29 09:31:47;;;;;;;16.97;10.73;;;;;;;;;;4953548;28;20212;-77
2022/01/29 09:34:13;;;;;;;17.70;10.50;;;;;;;;;;4951668;28;20223;-77
2022/01/29 09:36:39;;;;;;;18.97;10.87;;;;;;;;;;4955385;28;20288;-77
2022/01/29 09:39:06;;;;;;;19.53;11.60;;;;;;;;;;4953890;28;20186;-78
2022/01/29 09:41:32;;;;;;;18.70;11.20;;;;;;;;;;4951949;28;20264;-77
2022/01/29 09:43:59;;;;;;;17.60;11.57;;;;;;;;;;4953137;28;20205;-77
2022/01/29 09:46:30;;;;;;;17.20;11.23;;;;;;;;;;4952609;28;20182;-78
2022/01/29 09:48:56;;;;;;;16.63;11.90;;;;;;;;;;4954479;28;20209;-78
2022/01/29 09:51:22;;;;;;;16.90;11.07;;;;;;;;;;4955500;29;20265;-81
2022/01/29 09:53:48;;;;;;;18.60;12.47;;;;;;;;;;4956054;28;20209;-80
2022/01/29 09:56:16;;;;;;;18.27;11.53;;;;;;;;;;4950878;28;20646;-76
2022/01/29 09:58:43;;;;;;;18.47;11.83;;;;;;;;;;4952381;28;20177;-79
2022/01/29 10:01:10;;;;;;;15.13;10.43;;;;;;;;;;4951931;29;20174;-81
2022/01/29 10:03:36;;;;;;;19.97;12.00;;;;;;;;;;4957655;28;20205;-80
2022/01/29 10:06:03;;;;;;;17.90;10.73;;;;;;;;;;4956979;28;20233;-79
2022/01/29 10:08:30;;;;;;;16.40;10.23;;;;;;;;;;4956903;28;20197;-80
2022/01/29 10:10:58;;;;;;;15.87;10.67;;;;;;;;;;4957604;29;20184;-80
2022/01/29 10:13:24;;;;;;;14.70;10.40;;;;;;;;;;4948636;28;20218;-78
2022/01/29 10:15:51;;;;;;;14.33;9.37;;;;;;;;;;4954498;28;20193;-78
2022/01/29 10:18:21;;;;;;;16.47;10.37;;;;;;;;;;4946619;28;20266;-78
2022/01/29 10:20:47;;;;;;;15.90;10.60;;;;;;;;;;4952921;29;20178;-78
2022/01/29 10:23:14;;;;;;;16.37;10.80;;;;;;;;;;4950622;29;20182;-78
2022/01/29 10:25:43;;;;;;;15.77;10.63;;;;;;;;;;4947540;28;20259;-81
2022/01/29 10:28:16;;;;;;;17.03;10.60;;;;;;;;;;4949889;28;20206;-79
2022/01/29 10:30:48;;;;;;;17.40;11.57;;;;;;;;;;4953487;28;20292;-80
2022/01/29 10:33:19;;;;;;;16.30;11.17;;;;;;;;;;4950606;28;20221;-80
2022/01/29 10:35:46;;;;;;;18.37;11.47;;;;;;;;;;4947637;28;20214;-81
2022/01/29 10:38:12;;;;;;;17.37;11.83;;;;;;;;;;4952512;28;20192;-80
2022/01/29 10:40:39;;;;;;;15.73;10.50;;;;;;;;;;4952588;28;20205;-81
2022/01/29 10:43:06;;;;;;;19.73;11.60;;;;;;;;;;4948863;28;20196;-81
2022/01/29 10:45:34;;;;;;;19.40;11.77;;;;;;;;;;4952618;28;20243;-81
2022/01/29 10:48:00;;;;;;;16.53;11.13;;;;;;;;;;4954289;28;20792;-79
2022/01/29 10:50:27;;;;;;;17.67;11.73;;;;;;;;;;4948902;28;20213;-81
2022/01/29 10:52:56;;;;;;;19.07;12.50;;;;;;;;;;4951269;28;20224;-79
2022/01/29 10:55:22;;;;;;;18.43;11.83;;;;;;;;;;4944140;29;20248;-79
2022/01/29 10:57:49;;;;;;;18.77;12.23;;;;;;;;;;4949081;29;20280;-79
2022/01/29 11:00:22;;;;;;;21.63;12.77;;;;;;;;;;4950308;29;20299;-79
2022/01/29 11:02:49;;;;;;;21.13;13.40;;;;;;;;;;4970139;28;20257;-80
2022/01/29 11:05:16;;;;;;;23.13;13.97;;;;;;;;;;4956583;28;20213;-80
2022/01/29 11:07:45;;;;;;;19.97;12.63;;;;;;;;;;4946060;29;20732;-80
2022/01/29 11:10:11;;;;;;;19.43;12.77;;;;;;;;;;4963699;28;20280;-79
2022/01/29 11:12:41;;;;;;;18.80;12.57;;;;;;;;;;4968779;28;20219;-80
2022/01/29 11:15:08;;;;;;;20.10;13.27;;;;;;;;;;4959128;28;20867;-80
2022/01/29 11:17:34;;;;;;;18.70;12.67;;;;;;;;;;4972888;28;20544;-80
2022/01/29 11:20:01;;;;;;;19.03;12.40;;;;;;;;;;4961657;28;20181;-80
2022/01/29 11:22:41;;;;;;;18.57;12.37;;;;;;;;;;4969497;28;20727;-80
2022/01/29 11:25:08;;;;;;;17.80;11.60;;;;;;;;;;4953388;28;20580;-80
2022/01/29 11:27:37;;;;;;;17.93;12.27;;;;;;;;;;4960500;28;20197;-80
2022/01/29 11:30:03;;;;;;;18.27;12.47;;;;;;;;;;4936433;29;20170;-80
2022/01/29 11:32:32;;;;;;;16.80;11.20;;;;;;;;;;4958914;28;20217;-80
2022/01/29 11:34:59;;;;;;;16.80;11.73;;;;;;;;;;4956078;28;20248;-80
2022/01/29 11:37:44;;;;;;;18.27;12.20;;;;;;;;;;4971967;28;20185;-80
2022/01/29 11:40:30;;;;;;;17.70;12.17;;;;;;;;;;4969913;28;20178;-78
2022/01/29 11:42:59;;;;;;;15.83;10.77;;;;;;;;;;4961426;28;20595;-78
2022/01/29 11:45:38;;;;;;;16.80;11.70;;;;;;;;;;4942891;28;20185;-77
2022/01/29 11:48:05;;;;;;;16.30;11.63;;;;;;;;;;4959153;28;20608;-78
2022/01/29 11:50:32;;;;;;;17.07;11.70;;;;;;;;;;4941031;28;20191;-78
2022/01/29 11:52:59;;;;;;;18.70;11.90;;;;;;;;;;4961259;28;20213;-78
2022/01/29 11:55:33;;;;;;;18.20;12.53;;;;;;;;;;4956178;28;20178;-78
2022/01/29 11:58:19;;;;;;;21.33;12.90;;;;;;;;;;4959295;28;20185;-76
2022/01/29 12:00:46;;;;;;;16.27;11.20;;;;;;;;;;4959361;28;20643;-80
2022/01/29 12:03:31;;;;;;;18.63;12.07;;;;;;;;;;4959511;28;20280;-77
2022/01/29 12:08:59;;;;;;;16.93;11.77;;;;;;;;;;4957198;28;20209;-75
2022/01/29 12:11:25;;;;;;;19.83;12.30;;;;;;;;;;4953703;28;20292;-77
2022/01/29 12:14:10;;;;;;;18.70;12.27;;;;;;;;;;4954598;28;20200;-79
2022/01/29 12:16:57;;;;;;;18.90;12.17;;;;;;;;;;4950764;28;20316;-76
2022/01/29 12:19:40;;;;;;;16.83;11.17;;;;;;;;;;4952643;28;20189;-76
2022/01/29 12:22:10;;;;;;;17.23;11.63;;;;;;;;;;4949370;28;20267;-76
2022/01/29 12:24:36;;;;;;;15.03;11.03;;;;;;;;;;4953477;28;20739;-76
2022/01/29 12:27:03;;;;;;;16.90;11.70;;;;;;;;;;4951098;29;20464;-76
2022/01/29 12:29:30;;;;;;;15.73;10.97;;;;;;;;;;4953400;29;20205;-76
2022/01/29 12:31:57;;;;;;;14.27;10.53;;;;;;;;;;4954144;28;20311;-74
2022/01/29 12:34:28;;;;;;;17.70;13.10;;;;;;;;;;4948017;28;20205;-75
2022/01/29 12:37:10;;;;;;;18.47;11.57;;;;;;;;;;4948460;28;20268;-75
2022/01/29 12:39:37;;;;;;;15.57;11.07;;;;;;;;;;4951904;29;20185;-76
2022/01/29 12:42:17;;;;;;;16.63;10.47;;;;;;;;;;4952951;28;20272;-74
2022/01/29 12:44:52;;;;;;;16.70;10.87;;;;;;;;;;4948973;28;20287;-74
2022/01/29 12:47:25;;;;;;;16.17;10.53;;;;;;;;;;4951583;28;20189;-75
2022/01/29 12:49:52;;;;;;;15.13;9.70;;;;;;;;;;4939714;29;20324;-75
2022/01/29 12:52:18;;;;;;;13.93;9.07;;;;;;;;;;4952654;28;20207;-72
2022/01/29 12:54:54;;;;;;;15.37;10.77;;;;;;;;;;4944512;29;20811;-74
2022/01/29 12:57:22;;;;;;;15.50;9.77;;;;;;;;;;4949917;28;20232;-75
2022/01/29 12:59:48;;;;;;;14.53;10.17;;;;;;;;;;4938801;28;20534;-74
2022/01/29 13:02:15;;;;;;;14.60;10.20;;;;;;;;;;4948994;28;20185;-74
2022/01/29 13:04:46;;;;;;;16.53;10.73;;;;;;;;;;4949450;28;20213;-74
2022/01/29 13:07:12;;;;;;;15.07;10.40;;;;;;;;;;4950830;28;20871;-75
2022/01/29 13:09:38;;;;;;;14.57;10.67;;;;;;;;;;4935451;29;20193;-74
2022/01/29 13:12:11;;;;;;;15.77;10.87;;;;;;;;;;4934930;29;20234;-74
2022/01/29 13:14:37;;;;;;;15.07;9.60;;;;;;;;;;4947492;28;20201;-74
2022/01/29 13:17:06;;;;;;;14.30;9.53;;;;;;;;;;4949525;29;20288;-74
2022/01/29 13:19:32;;;;;;;12.47;9.20;;;;;;;;;;4951098;28;20342;-74
2022/01/29 13:22:07;;;;;;;12.53;8.87;;;;;;;;;;4949818;28;20189;-74
2022/01/29 13:24:35;;;;;;;12.80;8.77;;;;;;;;;;4950121;28;20215;-74
2022/01/29 13:27:09;;;;;;;15.23;9.43;;;;;;;;;;4955648;28;20628;-74
2022/01/29 13:30:11;;;;;;;12.13;8.53;;;;;;;;;;4930486;29;20193;-74
2022/01/29 13:32:38;;;;;;;13.33;9.40;;;;;;;;;;4954415;29;20207;-74
2022/01/29 13:35:22;;;;;;;14.00;9.73;;;;;;;;;;4955285;28;20259;-76
2022/01/29 13:37:56;;;;;;;12.27;8.73;;;;;;;;;;4955187;28;20208;-75
2022/01/29 13:40:32;;;;;;;12.40;8.83;;;;;;;;;;4955568;28;20232;-76
2022/01/29 13:43:01;;;;;;;15.30;9.20;;;;;;;;;;4955364;28;20192;-77
2022/01/29 13:45:30;;;;;;;14.40;9.17;;;;;;;;;;4937700;29;20201;-76
2022/01/29 13:48:04;;;;;;;13.03;8.97;;;;;;;;;;4955171;28;20191;-76
2022/01/29 13:50:45;;;;;;;11.73;8.67;;;;;;;;;;4955095;29;20262;-75
2022/01/29 13:53:15;;;;;;;13.83;9.33;;;;;;;;;;4955403;28;20205;-78
2022/01/29 13:55:57;;;;;;;15.07;8.87;;;;;;;;;;4955401;29;20216;-77
2022/01/29 13:58:24;;;;;;;11.83;8.70;;;;;;;;;;4941320;29;20177;-77
2022/01/29 14:01:00;;;;;;;12.13;8.20;;;;;;;;;;4955826;28;20177;-78
2022/01/29 14:03:45;;;;;;;12.77;8.60;;;;;;;;;;4954824;28;20209;-77
2022/01/29 14:06:18;;;;;;;13.87;10.47;;;;;;;;;;4955521;29;20173;-77
2022/01/29 14:08:45;;;;;;;9.60;7.87;;;;;;;;;;4956503;28;20169;-77
2022/01/29 14:11:15;;;;;;;10.53;7.70;;;;;;;;;;4956492;28;20661;-77
2022/01/29 14:13:41;;;;;;;10.73;8.33;;;;;;;;;;4955925;28;20259;-77
2022/01/29 14:16:07;;;;;;;10.10;8.00;;;;;;;;;;4956123;28;20533;-77
2022/01/29 14:18:34;;;;;;;10.93;7.30;;;;;;;;;;4954939;28;20185;-77
2022/01/29 14:21:02;;;;;;;9.70;7.43;;;;;;;;;;4942271;28;20209;-77
2022/01/29 14:23:28;;;;;;;10.27;7.10;;;;;;;;;;4950158;29;20691;-75
2022/01/29 14:25:54;;;;;;;9.40;6.73;;;;;;;;;;4953422;28;20207;-77
2022/01/29 14:28:22;;;;;;;9.03;6.47;;;;;;;;;;4951732;29;20720;-77
2022/01/29 14:30:48;;;;;;;9.20;6.47;;;;;;;;;;4955024;28;20268;-77
2022/01/29 14:33:15;;;;;;;9.63;7.33;;;;;;;;;;4950017;28;20211;-76
2022/01/29 14:35:41;;;;;;;10.13;6.90;;;;;;;;;;4952515;28;20695;-76
2022/01/29 14:38:07;;;;;;;10.73;7.00;;;;;;;;;;4947766;28;20268;-76